sensor_id;sensor_type;location;lat;lon;timestamp;P1;durP1;ratioP1;P2;durP2;ratioP2
34481;SDS011;20720;48.886;9.388;2023-04-15T00:02:20;10.90;;;4.85;;
34481;SDS011;20720;48.886;9.388;2023-04-15T00:04:46;10.88;;;5.10;;
34481;SDS011;20720;48.886;9.388;2023-04-15T00:07:11;13.02;;;4.60;;
34481;SDS011;20720;48.886;9.388;2023-04-15T00:09:37;10.38;;;3.80;;
34481;SDS011;20720;48.886;9.388;2023-04-15T00:12:03;9.73;;;4.07;;
34481;SDS011;20720;48.886;9.388;2023-04-15T00:14:29;11.02;;;3.35;;
34481;SDS011;20720;48.886;9.388;2023-04-15T00:16:55;7.03;;;2.63;;
34481;SDS011;20720;48.886;9.388;2023-04-15T00:19:21;5.65;;;1.90;;
34481;SDS011;20720;48.886;9.388;2023-04-15T00:21:48;3.80;;;2.03;;
34481;SDS011;20720;48.886;9.388;2023-04-15T00:24:13;5.18;;;1.83;;
34481;SDS011;20720;48.886;9.388;2023-04-15T00:26:38;4.95;;;2.30;;
34481;SDS011;20720;48.886;9.388;2023-04-15T00:29:03;5.30;;;2.20;;
34481;SDS011;20720;48.886;9.388;2023-04-15T00:31:29;8.88;;;2.65;;
34481;SDS011;20720;48.886;9.388;2023-04-15T00:33:55;7.55;;;2.40;;
34481;SDS011;20720;48.886;9.388;2023-04-15T00:36:21;5.70;;;2.13;;
34481;SDS011;20720;48.886;9.388;2023-04-15T00:38:47;5.35;;;2.20;;
34481;SDS011;20720;48.886;9.388;2023-04-15T00:41:12;4.15;;;2.60;;
34481;SDS011;20720;48.886;9.388;2023-04-15T00:43:37;5.32;;;2.67;;
34481;SDS011;20720;48.886;9.388;2023-04-15T00:46:03;6.15;;;2.67;;
34481;SDS011;20720;48.886;9.388;2023-04-15T00:48:30;5.85;;;2.63;;
34481;SDS011;20720;48.886;9.388;2023-04-15T00:50:56;7.28;;;3.28;;
34481;SDS011;20720;48.886;9.388;2023-04-15T00:53:21;7.03;;;3.05;;
34481;SDS011;20720;48.886;9.388;2023-04-15T00:55:47;8.63;;;2.97;;
34481;SDS011;20720;48.886;9.388;2023-04-15T00:58:12;6.38;;;3.30;;
34481;SDS011;20720;48.886;9.388;2023-04-15T01:00:38;3.95;;;2.58;;
34481;SDS011;20720;48.886;9.388;2023-04-15T01:03:04;7.15;;;2.80;;
34481;SDS011;20720;48.886;9.388;2023-04-15T01:05:30;7.63;;;2.70;;
34481;SDS011;20720;48.886;9.388;2023-04-15T01:07:56;6.47;;;2.80;;
34481;SDS011;20720;48.886;9.388;2023-04-15T01:10:22;6.70;;;2.90;;
34481;SDS011;20720;48.886;9.388;2023-04-15T01:12:47;6.15;;;3.20;;
34481;SDS011;20720;48.886;9.388;2023-04-15T01:15:12;5.50;;;2.72;;
34481;SDS011;20720;48.886;9.388;2023-04-15T01:17:38;5.75;;;2.70;;
34481;SDS011;20720;48.886;9.388;2023-04-15T01:20:04;4.78;;;2.90;;
34481;SDS011;20720;48.886;9.388;2023-04-15T01:22:30;7.25;;;2.83;;
34481;SDS011;20720;48.886;9.388;2023-04-15T01:25:01;5.13;;;2.95;;
34481;SDS011;20720;48.886;9.388;2023-04-15T01:27:33;6.40;;;2.95;;
34481;SDS011;20720;48.886;9.388;2023-04-15T01:29:59;6.32;;;2.85;;
34481;SDS011;20720;48.886;9.388;2023-04-15T01:32:25;7.22;;;2.80;;
34481;SDS011;20720;48.886;9.388;2023-04-15T01:34:51;6.00;;;2.88;;
34481;SDS011;20720;48.886;9.388;2023-04-15T01:37:16;6.03;;;2.90;;
34481;SDS011;20720;48.886;9.388;2023-04-15T01:39:41;7.72;;;2.90;;
34481;SDS011;20720;48.886;9.388;2023-04-15T01:42:07;6.05;;;3.17;;
34481;SDS011;20720;48.886;9.388;2023-04-15T01:44:32;5.22;;;3.05;;
34481;SDS011;20720;48.886;9.388;2023-04-15T01:46:57;8.60;;;2.85;;
34481;SDS011;20720;48.886;9.388;2023-04-15T01:49:23;5.90;;;2.75;;
34481;SDS011;20720;48.886;9.388;2023-04-15T01:51:48;4.65;;;1.65;;
34481;SDS011;20720;48.886;9.388;2023-04-15T01:54:14;5.13;;;2.75;;
34481;SDS011;20720;48.886;9.388;2023-04-15T01:56:39;7.63;;;2.67;;
34481;SDS011;20720;48.886;9.388;2023-04-15T01:59:04;6.47;;;3.30;;
34481;SDS011;20720;48.886;9.388;2023-04-15T02:01:30;9.13;;;3.60;;
34481;SDS011;20720;48.886;9.388;2023-04-15T02:03:55;7.43;;;3.22;;
34481;SDS011;20720;48.886;9.388;2023-04-15T02:06:21;7.20;;;3.47;;
34481;SDS011;20720;48.886;9.388;2023-04-15T02:08:46;7.47;;;3.50;;
34481;SDS011;20720;48.886;9.388;2023-04-15T02:11:11;7.20;;;3.83;;
34481;SDS011;20720;48.886;9.388;2023-04-15T02:13:37;6.80;;;3.72;;
34481;SDS011;20720;48.886;9.388;2023-04-15T02:16:02;8.18;;;3.75;;
34481;SDS011;20720;48.886;9.388;2023-04-15T02:18:27;6.68;;;3.17;;
34481;SDS011;20720;48.886;9.388;2023-04-15T02:20:53;7.22;;;3.50;;
34481;SDS011;20720;48.886;9.388;2023-04-15T02:23:18;8.05;;;3.95;;
34481;SDS011;20720;48.886;9.388;2023-04-15T02:25:43;4.93;;;2.55;;
34481;SDS011;20720;48.886;9.388;2023-04-15T02:28:09;6.25;;;2.90;;
34481;SDS011;20720;48.886;9.388;2023-04-15T02:30:35;5.65;;;2.85;;
34481;SDS011;20720;48.886;9.388;2023-04-15T02:33:00;5.75;;;2.30;;
34481;SDS011;20720;48.886;9.388;2023-04-15T02:35:25;8.38;;;3.05;;
34481;SDS011;20720;48.886;9.388;2023-04-15T02:37:51;9.80;;;2.80;;
34481;SDS011;20720;48.886;9.388;2023-04-15T02:40:17;7.00;;;2.53;;
34481;SDS011;20720;48.886;9.388;2023-04-15T02:42:42;6.43;;;2.60;;
34481;SDS011;20720;48.886;9.388;2023-04-15T02:45:08;5.40;;;2.50;;
34481;SDS011;20720;48.886;9.388;2023-04-15T02:47:36;5.10;;;2.50;;
34481;SDS011;20720;48.886;9.388;2023-04-15T02:50:04;5.53;;;2.80;;
34481;SDS011;20720;48.886;9.388;2023-04-15T02:52:31;4.30;;;2.30;;
34481;SDS011;20720;48.886;9.388;2023-04-15T02:54:56;6.70;;;2.80;;
34481;SDS011;20720;48.886;9.388;2023-04-15T02:57:25;5.75;;;2.63;;
34481;SDS011;20720;48.886;9.388;2023-04-15T02:59:52;5.93;;;2.90;;
34481;SDS011;20720;48.886;9.388;2023-04-15T03:02:17;7.18;;;3.28;;
34481;SDS011;20720;48.886;9.388;2023-04-15T03:04:43;5.55;;;3.05;;
34481;SDS011;20720;48.886;9.388;2023-04-15T03:07:08;5.75;;;2.95;;
34481;SDS011;20720;48.886;9.388;2023-04-15T03:09:33;6.80;;;3.35;;
34481;SDS011;20720;48.886;9.388;2023-04-15T03:11:59;8.23;;;3.20;;
34481;SDS011;20720;48.886;9.388;2023-04-15T03:14:24;5.43;;;2.83;;
34481;SDS011;20720;48.886;9.388;2023-04-15T03:16:50;5.05;;;2.60;;
34481;SDS011;20720;48.886;9.388;2023-04-15T03:19:15;4.72;;;2.45;;
34481;SDS011;20720;48.886;9.388;2023-04-15T03:21:41;5.38;;;2.90;;
34481;SDS011;20720;48.886;9.388;2023-04-15T03:24:06;6.55;;;2.22;;
34481;SDS011;20720;48.886;9.388;2023-04-15T03:26:31;4.53;;;2.55;;
34481;SDS011;20720;48.886;9.388;2023-04-15T03:28:57;5.88;;;3.08;;
34481;SDS011;20720;48.886;9.388;2023-04-15T03:31:22;6.75;;;2.60;;
34481;SDS011;20720;48.886;9.388;2023-04-15T03:33:48;8.18;;;3.13;;
34481;SDS011;20720;48.886;9.388;2023-04-15T03:36:14;6.22;;;2.60;;
34481;SDS011;20720;48.886;9.388;2023-04-15T03:38:40;4.38;;;2.30;;
34481;SDS011;20720;48.886;9.388;2023-04-15T03:41:06;7.28;;;2.67;;
34481;SDS011;20720;48.886;9.388;2023-04-15T03:43:31;4.50;;;2.28;;
34481;SDS011;20720;48.886;9.388;2023-04-15T03:45:56;11.15;;;4.03;;
34481;SDS011;20720;48.886;9.388;2023-04-15T03:48:22;10.40;;;4.55;;
34481;SDS011;20720;48.886;9.388;2023-04-15T03:50:47;10.95;;;4.93;;
34481;SDS011;20720;48.886;9.388;2023-04-15T03:53:13;9.10;;;4.68;;
34481;SDS011;20720;48.886;9.388;2023-04-15T03:55:38;11.50;;;4.50;;
34481;SDS011;20720;48.886;9.388;2023-04-15T03:58:04;7.15;;;3.60;;
34481;SDS011;20720;48.886;9.388;2023-04-15T04:00:29;6.90;;;3.50;;
34481;SDS011;20720;48.886;9.388;2023-04-15T04:02:55;8.70;;;3.88;;
34481;SDS011;20720;48.886;9.388;2023-04-15T04:05:20;6.60;;;3.25;;
34481;SDS011;20720;48.886;9.388;2023-04-15T04:07:46;10.20;;;2.78;;
34481;SDS011;20720;48.886;9.388;2023-04-15T04:10:11;8.82;;;2.97;;
34481;SDS011;20720;48.886;9.388;2023-04-15T04:12:37;6.72;;;3.10;;
34481;SDS011;20720;48.886;9.388;2023-04-15T04:15:02;5.70;;;2.92;;
34481;SDS011;20720;48.886;9.388;2023-04-15T04:17:27;6.82;;;2.80;;
34481;SDS011;20720;48.886;9.388;2023-04-15T04:19:53;5.90;;;2.67;;
34481;SDS011;20720;48.886;9.388;2023-04-15T04:22:21;6.32;;;2.90;;
34481;SDS011;20720;48.886;9.388;2023-04-15T04:24:48;4.18;;;2.25;;
34481;SDS011;20720;48.886;9.388;2023-04-15T04:27:13;3.10;;;2.05;;
34481;SDS011;20720;48.886;9.388;2023-04-15T04:29:38;4.28;;;2.50;;
34481;SDS011;20720;48.886;9.388;2023-04-15T04:32:03;5.07;;;2.50;;
34481;SDS011;20720;48.886;9.388;2023-04-15T04:34:29;4.40;;;2.65;;
34481;SDS011;20720;48.886;9.388;2023-04-15T04:36:54;6.65;;;2.55;;
34481;SDS011;20720;48.886;9.388;2023-04-15T04:39:19;6.88;;;2.75;;
34481;SDS011;20720;48.886;9.388;2023-04-15T04:41:45;8.32;;;2.80;;
34481;SDS011;20720;48.886;9.388;2023-04-15T04:44:10;4.25;;;2.58;;
34481;SDS011;20720;48.886;9.388;2023-04-15T04:46:35;4.80;;;2.70;;
34481;SDS011;20720;48.886;9.388;2023-04-15T04:49:01;8.10;;;2.80;;
34481;SDS011;20720;48.886;9.388;2023-04-15T04:51:26;6.22;;;3.05;;
34481;SDS011;20720;48.886;9.388;2023-04-15T04:53:52;4.63;;;2.53;;
34481;SDS011;20720;48.886;9.388;2023-04-15T04:56:18;7.18;;;3.13;;
34481;SDS011;20720;48.886;9.388;2023-04-15T04:58:43;4.70;;;2.88;;
34481;SDS011;20720;48.886;9.388;2023-04-15T05:01:08;6.03;;;3.17;;
34481;SDS011;20720;48.886;9.388;2023-04-15T05:03:34;9.93;;;3.00;;
34481;SDS011;20720;48.886;9.388;2023-04-15T05:05:59;4.68;;;2.90;;
34481;SDS011;20720;48.886;9.388;2023-04-15T05:08:27;3.88;;;2.40;;
34481;SDS011;20720;48.886;9.388;2023-04-15T05:10:52;5.65;;;2.92;;
34481;SDS011;20720;48.886;9.388;2023-04-15T05:13:17;6.25;;;3.03;;
34481;SDS011;20720;48.886;9.388;2023-04-15T05:15:42;8.05;;;2.63;;
34481;SDS011;20720;48.886;9.388;2023-04-15T05:18:08;11.52;;;4.03;;
34481;SDS011;20720;48.886;9.388;2023-04-15T05:20:34;8.65;;;3.85;;
34481;SDS011;20720;48.886;9.388;2023-04-15T05:22:59;9.02;;;3.58;;
34481;SDS011;20720;48.886;9.388;2023-04-15T05:25:24;6.15;;;3.33;;
34481;SDS011;20720;48.886;9.388;2023-04-15T05:27:50;5.00;;;3.05;;
34481;SDS011;20720;48.886;9.388;2023-04-15T05:30:15;5.30;;;3.60;;
34481;SDS011;20720;48.886;9.388;2023-04-15T05:32:40;7.78;;;4.13;;
34481;SDS011;20720;48.886;9.388;2023-04-15T05:35:06;7.15;;;4.10;;
34481;SDS011;20720;48.886;9.388;2023-04-15T05:37:32;7.50;;;4.10;;
34481;SDS011;20720;48.886;9.388;2023-04-15T05:39:57;10.77;;;5.35;;
34481;SDS011;20720;48.886;9.388;2023-04-15T05:42:23;8.52;;;5.35;;
34481;SDS011;20720;48.886;9.388;2023-04-15T05:44:48;6.47;;;4.05;;
34481;SDS011;20720;48.886;9.388;2023-04-15T05:47:13;5.70;;;3.45;;
34481;SDS011;20720;48.886;9.388;2023-04-15T05:49:39;7.47;;;3.67;;
34481;SDS011;20720;48.886;9.388;2023-04-15T05:52:04;5.68;;;3.03;;
34481;SDS011;20720;48.886;9.388;2023-04-15T05:54:29;6.35;;;3.28;;
34481;SDS011;20720;48.886;9.388;2023-04-15T05:56:55;6.57;;;3.58;;
34481;SDS011;20720;48.886;9.388;2023-04-15T05:59:21;8.65;;;5.20;;
34481;SDS011;20720;48.886;9.388;2023-04-15T06:01:46;9.57;;;5.72;;
34481;SDS011;20720;48.886;9.388;2023-04-15T06:04:12;8.80;;;5.22;;
34481;SDS011;20720;48.886;9.388;2023-04-15T06:06:37;8.60;;;5.25;;
34481;SDS011;20720;48.886;9.388;2023-04-15T06:09:02;8.95;;;4.95;;
34481;SDS011;20720;48.886;9.388;2023-04-15T06:11:28;9.88;;;4.97;;
34481;SDS011;20720;48.886;9.388;2023-04-15T06:13:54;7.70;;;4.80;;
34481;SDS011;20720;48.886;9.388;2023-04-15T06:16:20;11.65;;;5.10;;
34481;SDS011;20720;48.886;9.388;2023-04-15T06:18:46;10.60;;;4.90;;
34481;SDS011;20720;48.886;9.388;2023-04-15T06:21:12;8.73;;;4.45;;
34481;SDS011;20720;48.886;9.388;2023-04-15T06:23:37;6.63;;;4.03;;
34481;SDS011;20720;48.886;9.388;2023-04-15T06:26:05;6.80;;;3.90;;
34481;SDS011;20720;48.886;9.388;2023-04-15T06:28:30;6.13;;;3.90;;
34481;SDS011;20720;48.886;9.388;2023-04-15T06:30:56;8.05;;;4.10;;
34481;SDS011;20720;48.886;9.388;2023-04-15T06:33:21;6.28;;;3.50;;
34481;SDS011;20720;48.886;9.388;2023-04-15T06:35:46;5.85;;;2.60;;
34481;SDS011;20720;48.886;9.388;2023-04-15T06:38:13;6.53;;;3.10;;
34481;SDS011;20720;48.886;9.388;2023-04-15T06:40:38;8.80;;;3.72;;
34481;SDS011;20720;48.886;9.388;2023-04-15T06:43:04;6.25;;;3.13;;
34481;SDS011;20720;48.886;9.388;2023-04-15T06:45:30;6.18;;;2.75;;
34481;SDS011;20720;48.886;9.388;2023-04-15T06:47:56;6.90;;;3.35;;
34481;SDS011;20720;48.886;9.388;2023-04-15T06:50:21;4.75;;;2.70;;
34481;SDS011;20720;48.886;9.388;2023-04-15T06:52:46;6.78;;;3.13;;
34481;SDS011;20720;48.886;9.388;2023-04-15T06:55:11;5.75;;;3.42;;
34481;SDS011;20720;48.886;9.388;2023-04-15T06:57:37;7.03;;;3.35;;
34481;SDS011;20720;48.886;9.388;2023-04-15T07:00:03;6.75;;;2.80;;
34481;SDS011;20720;48.886;9.388;2023-04-15T07:02:29;7.65;;;3.28;;
34481;SDS011;20720;48.886;9.388;2023-04-15T07:04:55;8.07;;;2.80;;
34481;SDS011;20720;48.886;9.388;2023-04-15T07:07:20;5.43;;;2.58;;
34481;SDS011;20720;48.886;9.388;2023-04-15T07:09:46;7.85;;;2.70;;
34481;SDS011;20720;48.886;9.388;2023-04-15T07:12:11;6.40;;;2.78;;
34481;SDS011;20720;48.886;9.388;2023-04-15T07:14:37;5.70;;;3.13;;
34481;SDS011;20720;48.886;9.388;2023-04-15T07:17:02;6.40;;;2.88;;
34481;SDS011;20720;48.886;9.388;2023-04-15T07:19:27;6.13;;;3.42;;
34481;SDS011;20720;48.886;9.388;2023-04-15T07:21:53;7.00;;;2.95;;
34481;SDS011;20720;48.886;9.388;2023-04-15T07:24:18;6.82;;;2.90;;
34481;SDS011;20720;48.886;9.388;2023-04-15T07:26:44;6.68;;;3.13;;
34481;SDS011;20720;48.886;9.388;2023-04-15T07:29:10;6.63;;;2.92;;
34481;SDS011;20720;48.886;9.388;2023-04-15T07:31:35;7.65;;;3.55;;
34481;SDS011;20720;48.886;9.388;2023-04-15T07:34:01;6.07;;;3.00;;
34481;SDS011;20720;48.886;9.388;2023-04-15T07:36:27;7.88;;;3.35;;
34481;SDS011;20720;48.886;9.388;2023-04-15T07:38:53;9.23;;;3.40;;
34481;SDS011;20720;48.886;9.388;2023-04-15T07:41:19;5.50;;;3.17;;
34481;SDS011;20720;48.886;9.388;2023-04-15T07:43:45;5.68;;;3.10;;
34481;SDS011;20720;48.886;9.388;2023-04-15T07:46:11;7.70;;;3.15;;
34481;SDS011;20720;48.886;9.388;2023-04-15T07:48:36;7.65;;;3.13;;
34481;SDS011;20720;48.886;9.388;2023-04-15T07:51:01;7.60;;;3.28;;
34481;SDS011;20720;48.886;9.388;2023-04-15T07:53:27;7.50;;;3.08;;
34481;SDS011;20720;48.886;9.388;2023-04-15T07:55:52;5.75;;;3.08;;
34481;SDS011;20720;48.886;9.388;2023-04-15T07:58:18;6.57;;;2.90;;
34481;SDS011;20720;48.886;9.388;2023-04-15T08:00:43;8.52;;;3.22;;
34481;SDS011;20720;48.886;9.388;2023-04-15T08:03:08;6.82;;;2.80;;
34481;SDS011;20720;48.886;9.388;2023-04-15T08:05:33;6.65;;;2.83;;
34481;SDS011;20720;48.886;9.388;2023-04-15T08:07:59;8.25;;;3.20;;
34481;SDS011;20720;48.886;9.388;2023-04-15T08:10:25;5.68;;;3.00;;
34481;SDS011;20720;48.886;9.388;2023-04-15T08:12:50;6.32;;;2.28;;
34481;SDS011;20720;48.886;9.388;2023-04-15T08:15:18;5.10;;;2.13;;
34481;SDS011;20720;48.886;9.388;2023-04-15T08:17:44;7.93;;;2.75;;
34481;SDS011;20720;48.886;9.388;2023-04-15T08:20:09;5.47;;;2.35;;
34481;SDS011;20720;48.886;9.388;2023-04-15T08:22:35;4.68;;;2.15;;
34481;SDS011;20720;48.886;9.388;2023-04-15T08:25:00;4.40;;;2.20;;
34481;SDS011;20720;48.886;9.388;2023-04-15T08:27:26;5.20;;;2.55;;
34481;SDS011;20720;48.886;9.388;2023-04-15T08:29:51;3.78;;;2.00;;
34481;SDS011;20720;48.886;9.388;2023-04-15T08:32:16;7.53;;;2.70;;
34481;SDS011;20720;48.886;9.388;2023-04-15T08:34:43;6.30;;;2.10;;
34481;SDS011;20720;48.886;9.388;2023-04-15T08:37:08;7.03;;;2.35;;
34481;SDS011;20720;48.886;9.388;2023-04-15T08:39:34;4.43;;;1.83;;
34481;SDS011;20720;48.886;9.388;2023-04-15T08:41:59;10.38;;;3.45;;
34481;SDS011;20720;48.886;9.388;2023-04-15T08:44:27;5.20;;;2.28;;
34481;SDS011;20720;48.886;9.388;2023-04-15T08:46:55;8.23;;;3.10;;
34481;SDS011;20720;48.886;9.388;2023-04-15T08:49:25;6.50;;;2.90;;
34481;SDS011;20720;48.886;9.388;2023-04-15T08:51:51;5.55;;;2.38;;
34481;SDS011;20720;48.886;9.388;2023-04-15T08:54:16;6.50;;;3.20;;
34481;SDS011;20720;48.886;9.388;2023-04-15T08:56:42;8.38;;;3.10;;
34481;SDS011;20720;48.886;9.388;2023-04-15T08:59:08;5.90;;;2.53;;
34481;SDS011;20720;48.886;9.388;2023-04-15T09:01:35;13.07;;;5.85;;
34481;SDS011;20720;48.886;9.388;2023-04-15T09:04:02;10.25;;;4.00;;
34481;SDS011;20720;48.886;9.388;2023-04-15T09:06:30;6.72;;;2.70;;
34481;SDS011;20720;48.886;9.388;2023-04-15T09:08:55;5.03;;;2.20;;
34481;SDS011;20720;48.886;9.388;2023-04-15T09:11:21;7.00;;;2.22;;
34481;SDS011;20720;48.886;9.388;2023-04-15T09:13:47;7.65;;;2.60;;
34481;SDS011;20720;48.886;9.388;2023-04-15T09:16:13;3.65;;;1.83;;
34481;SDS011;20720;48.886;9.388;2023-04-15T09:18:39;4.60;;;2.28;;
34481;SDS011;20720;48.886;9.388;2023-04-15T09:23:31;6.35;;;2.28;;
34481;SDS011;20720;48.886;9.388;2023-04-15T09:25:56;9.27;;;2.67;;
34481;SDS011;20720;48.886;9.388;2023-04-15T09:28:25;5.80;;;2.35;;
34481;SDS011;20720;48.886;9.388;2023-04-15T09:30:52;6.45;;;2.17;;
34481;SDS011;20720;48.886;9.388;2023-04-15T09:33:20;4.63;;;2.28;;
34481;SDS011;20720;48.886;9.388;2023-04-15T09:35:55;6.55;;;2.30;;
34481;SDS011;20720;48.886;9.388;2023-04-15T09:38:30;4.65;;;1.88;;
34481;SDS011;20720;48.886;9.388;2023-04-15T09:40:56;6.93;;;2.00;;
34481;SDS011;20720;48.886;9.388;2023-04-15T09:43:36;3.75;;;1.70;;
34481;SDS011;20720;48.886;9.388;2023-04-15T09:46:03;4.50;;;1.98;;
34481;SDS011;20720;48.886;9.388;2023-04-15T09:48:28;4.47;;;2.03;;
34481;SDS011;20720;48.886;9.388;2023-04-15T09:50:58;6.80;;;2.10;;
34481;SDS011;20720;48.886;9.388;2023-04-15T09:53:24;4.40;;;1.95;;
34481;SDS011;20720;48.886;9.388;2023-04-15T09:55:51;3.50;;;1.98;;
34481;SDS011;20720;48.886;9.388;2023-04-15T09:58:28;5.90;;;2.10;;
34481;SDS011;20720;48.886;9.388;2023-04-15T10:00:56;3.42;;;1.60;;
34481;SDS011;20720;48.886;9.388;2023-04-15T10:03:23;4.10;;;1.85;;
34481;SDS011;20720;48.886;9.388;2023-04-15T10:05:51;7.10;;;1.70;;
34481;SDS011;20720;48.886;9.388;2023-04-15T10:08:19;4.10;;;1.70;;
34481;SDS011;20720;48.886;9.388;2023-04-15T10:10:46;2.72;;;1.50;;
34481;SDS011;20720;48.886;9.388;2023-04-15T10:13:13;7.28;;;1.98;;
34481;SDS011;20720;48.886;9.388;2023-04-15T10:15:41;3.67;;;1.70;;
34481;SDS011;20720;48.886;9.388;2023-04-15T10:18:09;3.13;;;1.38;;
34481;SDS011;20720;48.886;9.388;2023-04-15T10:20:35;5.82;;;1.80;;
34481;SDS011;20720;48.886;9.388;2023-04-15T10:23:01;5.00;;;1.60;;
34481;SDS011;20720;48.886;9.388;2023-04-15T10:25:26;3.25;;;1.40;;
34481;SDS011;20720;48.886;9.388;2023-04-15T10:27:52;3.53;;;1.23;;
34481;SDS011;20720;48.886;9.388;2023-04-15T10:30:18;2.97;;;1.30;;
34481;SDS011;20720;48.886;9.388;2023-04-15T10:32:44;3.72;;;1.65;;
34481;SDS011;20720;48.886;9.388;2023-04-15T10:35:10;4.18;;;1.75;;
34481;SDS011;20720;48.886;9.388;2023-04-15T10:37:36;5.13;;;1.73;;
34481;SDS011;20720;48.886;9.388;2023-04-15T10:42:57;3.30;;;1.50;;
34481;SDS011;20720;48.886;9.388;2023-04-15T10:45:25;4.10;;;1.90;;
34481;SDS011;20720;48.886;9.388;2023-04-15T10:47:55;4.72;;;1.55;;
34481;SDS011;20720;48.886;9.388;2023-04-15T10:50:24;4.50;;;1.80;;
34481;SDS011;20720;48.886;9.388;2023-04-15T10:52:50;4.65;;;1.92;;
34481;SDS011;20720;48.886;9.388;2023-04-15T10:55:20;4.35;;;1.92;;
34481;SDS011;20720;48.886;9.388;2023-04-15T10:57:50;4.18;;;1.77;;
34481;SDS011;20720;48.886;9.388;2023-04-15T11:00:18;4.68;;;1.70;;
34481;SDS011;20720;48.886;9.388;2023-04-15T11:02:47;6.82;;;2.08;;
34481;SDS011;20720;48.886;9.388;2023-04-15T11:05:17;4.28;;;1.50;;
34481;SDS011;20720;48.886;9.388;2023-04-15T11:12:42;4.45;;;1.80;;
34481;SDS011;20720;48.886;9.388;2023-04-15T11:17:51;5.07;;;1.58;;
34481;SDS011;20720;48.886;9.388;2023-04-15T11:20:17;3.90;;;1.75;;
34481;SDS011;20720;48.886;9.388;2023-04-15T11:22:46;3.85;;;1.33;;
34481;SDS011;20720;48.886;9.388;2023-04-15T11:25:21;3.47;;;1.80;;
34481;SDS011;20720;48.886;9.388;2023-04-15T11:27:47;6.68;;;1.58;;
34481;SDS011;20720;48.886;9.388;2023-04-15T11:30:17;6.05;;;1.55;;
34481;SDS011;20720;48.886;9.388;2023-04-15T11:32:45;4.13;;;1.73;;
34481;SDS011;20720;48.886;9.388;2023-04-15T11:35:10;3.73;;;1.80;;
34481;SDS011;20720;48.886;9.388;2023-04-15T11:37:35;5.25;;;1.50;;
34481;SDS011;20720;48.886;9.388;2023-04-15T11:40:01;6.78;;;1.92;;
34481;SDS011;20720;48.886;9.388;2023-04-15T11:42:27;4.03;;;1.90;;
34481;SDS011;20720;48.886;9.388;2023-04-15T11:45:05;4.50;;;2.03;;
34481;SDS011;20720;48.886;9.388;2023-04-15T11:47:31;4.78;;;2.20;;
34481;SDS011;20720;48.886;9.388;2023-04-15T11:49:56;4.00;;;1.92;;
34481;SDS011;20720;48.886;9.388;2023-04-15T11:52:22;3.55;;;1.30;;
34481;SDS011;20720;48.886;9.388;2023-04-15T11:54:49;4.97;;;1.85;;
34481;SDS011;20720;48.886;9.388;2023-04-15T11:57:15;7.55;;;1.80;;
34481;SDS011;20720;48.886;9.388;2023-04-15T11:59:41;2.78;;;1.60;;
34481;SDS011;20720;48.886;9.388;2023-04-15T12:02:11;3.42;;;1.65;;
34481;SDS011;20720;48.886;9.388;2023-04-15T12:04:37;5.03;;;2.03;;
34481;SDS011;20720;48.886;9.388;2023-04-15T12:07:05;3.88;;;1.80;;
34481;SDS011;20720;48.886;9.388;2023-04-15T12:09:31;7.22;;;2.33;;
34481;SDS011;20720;48.886;9.388;2023-04-15T12:12:02;4.25;;;2.30;;
34481;SDS011;20720;48.886;9.388;2023-04-15T12:17:03;3.15;;;2.00;;
34481;SDS011;20720;48.886;9.388;2023-04-15T12:24:31;4.63;;;1.75;;
34481;SDS011;20720;48.886;9.388;2023-04-15T12:27:00;5.07;;;1.80;;
34481;SDS011;20720;48.886;9.388;2023-04-15T12:29:27;3.42;;;1.50;;
34481;SDS011;20720;48.886;9.388;2023-04-15T12:31:55;4.10;;;2.05;;
34481;SDS011;20720;48.886;9.388;2023-04-15T12:34:25;3.85;;;1.50;;
34481;SDS011;20720;48.886;9.388;2023-04-15T12:36:55;4.55;;;1.73;;
34481;SDS011;20720;48.886;9.388;2023-04-15T12:39:25;5.38;;;1.35;;
34481;SDS011;20720;48.886;9.388;2023-04-15T12:41:52;4.15;;;1.67;;
34481;SDS011;20720;48.886;9.388;2023-04-15T12:44:18;3.60;;;1.60;;
34481;SDS011;20720;48.886;9.388;2023-04-15T12:46:45;3.13;;;1.20;;
34481;SDS011;20720;48.886;9.388;2023-04-15T12:49:10;3.33;;;1.30;;
34481;SDS011;20720;48.886;9.388;2023-04-15T12:51:40;3.58;;;1.20;;
34481;SDS011;20720;48.886;9.388;2023-04-15T12:54:05;5.97;;;1.40;;
34481;SDS011;20720;48.886;9.388;2023-04-15T12:56:30;2.72;;;1.13;;
34481;SDS011;20720;48.886;9.388;2023-04-15T12:58:56;3.13;;;1.30;;
34481;SDS011;20720;48.886;9.388;2023-04-15T13:01:21;2.75;;;1.23;;
34481;SDS011;20720;48.886;9.388;2023-04-15T13:03:47;3.35;;;1.13;;
34481;SDS011;20720;48.886;9.388;2023-04-15T13:06:15;3.80;;;0.85;;
34481;SDS011;20720;48.886;9.388;2023-04-15T13:08:41;4.88;;;1.02;;
34481;SDS011;20720;48.886;9.388;2023-04-15T13:11:06;1.73;;;0.73;;
34481;SDS011;20720;48.886;9.388;2023-04-15T13:13:32;1.30;;;0.60;;
34481;SDS011;20720;48.886;9.388;2023-04-15T13:15:57;2.58;;;0.82;;
34481;SDS011;20720;48.886;9.388;2023-04-15T13:18:23;2.17;;;0.52;;
34481;SDS011;20720;48.886;9.388;2023-04-15T13:20:48;2.72;;;0.90;;
34481;SDS011;20720;48.886;9.388;2023-04-15T13:23:15;2.10;;;0.80;;
34481;SDS011;20720;48.886;9.388;2023-04-15T13:25:41;1.95;;;0.57;;
34481;SDS011;20720;48.886;9.388;2023-04-15T13:28:07;3.33;;;0.82;;
34481;SDS011;20720;48.886;9.388;2023-04-15T13:30:32;2.03;;;0.60;;
34481;SDS011;20720;48.886;9.388;2023-04-15T13:32:57;3.28;;;0.68;;
34481;SDS011;20720;48.886;9.388;2023-04-15T13:35:23;1.35;;;0.70;;
34481;SDS011;20720;48.886;9.388;2023-04-15T13:37:48;2.22;;;0.65;;
34481;SDS011;20720;48.886;9.388;2023-04-15T13:40:13;3.35;;;0.80;;
34481;SDS011;20720;48.886;9.388;2023-04-15T13:42:39;2.58;;;0.50;;
34481;SDS011;20720;48.886;9.388;2023-04-15T13:45:06;2.78;;;0.68;;
34481;SDS011;20720;48.886;9.388;2023-04-15T13:47:32;2.03;;;0.50;;
34481;SDS011;20720;48.886;9.388;2023-04-15T13:49:57;2.25;;;0.80;;
34481;SDS011;20720;48.886;9.388;2023-04-15T13:52:22;1.42;;;0.70;;
34481;SDS011;20720;48.886;9.388;2023-04-15T13:54:48;2.75;;;0.80;;
34481;SDS011;20720;48.886;9.388;2023-04-15T13:57:17;1.17;;;0.63;;
34481;SDS011;20720;48.886;9.388;2023-04-15T13:59:42;2.55;;;0.73;;
34481;SDS011;20720;48.886;9.388;2023-04-15T14:02:08;2.58;;;0.70;;
34481;SDS011;20720;48.886;9.388;2023-04-15T14:04:33;1.63;;;0.60;;
34481;SDS011;20720;48.886;9.388;2023-04-15T14:06:59;1.65;;;0.70;;
34481;SDS011;20720;48.886;9.388;2023-04-15T14:09:25;2.45;;;0.70;;
34481;SDS011;20720;48.886;9.388;2023-04-15T14:11:50;1.75;;;0.60;;
34481;SDS011;20720;48.886;9.388;2023-04-15T14:14:16;1.40;;;0.50;;
34481;SDS011;20720;48.886;9.388;2023-04-15T14:16:41;2.50;;;0.75;;
34481;SDS011;20720;48.886;9.388;2023-04-15T14:19:07;2.15;;;0.68;;
34481;SDS011;20720;48.886;9.388;2023-04-15T14:21:32;1.77;;;0.55;;
34481;SDS011;20720;48.886;9.388;2023-04-15T14:23:57;2.63;;;1.20;;
34481;SDS011;20720;48.886;9.388;2023-04-15T14:26:23;4.43;;;1.55;;
34481;SDS011;20720;48.886;9.388;2023-04-15T14:28:48;2.58;;;1.00;;
34481;SDS011;20720;48.886;9.388;2023-04-15T14:31:13;2.38;;;0.95;;
34481;SDS011;20720;48.886;9.388;2023-04-15T14:33:39;2.60;;;0.82;;
34481;SDS011;20720;48.886;9.388;2023-04-15T14:36:05;3.83;;;1.40;;
34481;SDS011;20720;48.886;9.388;2023-04-15T14:38:32;2.47;;;1.23;;
34481;SDS011;20720;48.886;9.388;2023-04-15T14:41:02;3.35;;;1.10;;
34481;SDS011;20720;48.886;9.388;2023-04-15T14:43:28;2.90;;;1.05;;
34481;SDS011;20720;48.886;9.388;2023-04-15T14:45:53;5.55;;;0.90;;
34481;SDS011;20720;48.886;9.388;2023-04-15T14:48:19;3.42;;;1.20;;
34481;SDS011;20720;48.886;9.388;2023-04-15T14:50:44;3.42;;;1.10;;
34481;SDS011;20720;48.886;9.388;2023-04-15T14:53:10;3.70;;;1.27;;
34481;SDS011;20720;48.886;9.388;2023-04-15T14:55:35;2.13;;;0.80;;
34481;SDS011;20720;48.886;9.388;2023-04-15T14:58:00;3.50;;;1.30;;
34481;SDS011;20720;48.886;9.388;2023-04-15T15:00:26;2.63;;;1.20;;
34481;SDS011;20720;48.886;9.388;2023-04-15T15:02:52;4.57;;;1.52;;